createdAt,value
2018-04-11T00:01:15.905Z,10.05
2018-04-11T00:03:43.680Z,8.95
2018-04-11T00:06:11.320Z,7.85
2018-04-11T00:08:38.987Z,10.05
2018-04-11T00:11:07.366Z,7.90
2018-04-11T00:13:35.654Z,9.20
2018-04-11T00:16:03.961Z,11.40
2018-04-11T00:18:31.517Z,11.18
2018-04-11T00:20:59.189Z,10.48
2018-04-11T00:23:26.698Z,14.25
2018-04-11T00:28:58.065Z,13.15
2018-04-11T00:31:25.557Z,14.82
2018-04-11T00:33:53.888Z,13.55
2018-04-11T00:36:21.406Z,12.45
2018-04-11T00:38:49.671Z,13.50
2018-04-11T00:41:18.053Z,12.88
2018-04-11T00:43:46.350Z,13.70
2018-04-11T00:46:14.223Z,14.48
2018-04-11T00:48:41.729Z,13.52
2018-04-11T00:51:09.213Z,13.80
2018-04-11T00:53:37.486Z,12.97
2018-04-11T00:56:05.771Z,15.90
2018-04-11T00:58:34.098Z,15.45
2018-04-11T01:01:01.624Z,14.73
2018-04-11T01:03:29.169Z,12.57
2018-04-11T01:05:57.479Z,14.77
2018-04-11T01:08:24.989Z,11.02
2018-04-11T01:10:52.543Z,12.20
2018-04-11T01:13:20.162Z,11.60
2018-04-11T01:15:47.667Z,9.52
2018-04-11T01:18:15.233Z,12.63
2018-04-11T01:20:43.513Z,11.85
2018-04-11T01:23:12.104Z,10.05
2018-04-11T01:25:40.362Z,11.38
2018-04-11T01:28:07.864Z,9.88
2018-04-11T01:30:35.488Z,11.20
2018-04-11T01:33:03.793Z,10.52
2018-04-11T01:35:31.301Z,11.52
2018-04-11T01:37:58.910Z,7.30
2018-04-11T01:40:27.171Z,10.85
2018-04-11T01:42:55.445Z,14.52
2018-04-11T01:45:23.704Z,10.32
2018-04-11T01:47:51.194Z,13.30
2018-04-11T01:50:18.698Z,13.82
2018-04-11T01:52:46.308Z,13.93
2018-04-11T01:55:13.924Z,10.32
2018-04-11T01:57:41.423Z,8.98
2018-04-11T02:00:08.927Z,11.18
2018-04-11T02:02:36.478Z,7.55
2018-04-11T02:05:03.983Z,10.20
2018-04-11T02:07:32.306Z,8.88
2018-04-11T02:09:59.777Z,10.27
2018-04-11T02:12:27.270Z,13.77
2018-04-11T02:14:54.767Z,11.43
2018-04-11T02:17:22.297Z,9.68
2018-04-11T02:19:50.551Z,9.57
2018-04-11T02:22:18.038Z,9.98
2018-04-11T02:24:46.343Z,11.52
2018-04-11T02:27:13.842Z,10.90
2018-04-11T02:29:41.441Z,10.20
2018-04-11T02:32:08.929Z,10.75
2018-04-11T02:34:36.509Z,10.00
2018-04-11T02:37:04.032Z,17.98
2018-04-11T02:39:31.571Z,11.30
2018-04-11T02:41:59.074Z,11.52
2018-04-11T02:44:26.592Z,12.70
2018-04-11T02:46:54.849Z,10.25
2018-04-11T02:49:23.168Z,11.80
2018-04-11T02:51:50.701Z,9.48
2018-04-11T02:54:18.417Z,10.25
2018-04-11T02:56:45.916Z,10.98
2018-04-11T02:59:13.422Z,14.30
2018-04-11T03:01:40.963Z,13.68
2018-04-11T03:04:08.445Z,12.25
2018-04-11T03:06:35.963Z,12.55
2018-04-11T03:09:03.515Z,13.38
2018-04-11T03:11:31.057Z,13.23
2018-04-11T03:13:59.327Z,15.00
2018-04-11T03:16:27.590Z,14.70
2018-04-11T03:18:55.180Z,12.37
2018-04-11T03:21:22.725Z,15.27
2018-04-11T03:23:50.982Z,16.65
2018-04-11T03:26:18.516Z,17.80
2018-04-11T03:28:46.021Z,16.20
2018-04-11T03:31:14.293Z,15.63
2018-04-11T03:33:42.798Z,16.12
2018-04-11T03:36:10.404Z,18.75
2018-04-11T03:38:38.004Z,19.45
2018-04-11T03:41:06.401Z,20.35
2018-04-11T03:43:33.919Z,19.27
2018-04-11T03:46:02.183Z,18.10
2018-04-11T03:48:29.696Z,20.05
2018-04-11T03:50:57.205Z,18.15
2018-04-11T03:53:24.795Z,22.85
2018-04-11T03:55:53.109Z,18.23
2018-04-11T03:58:20.628Z,19.95
2018-04-11T04:00:49.029Z,18.12
2018-04-11T04:03:16.541Z,17.00
2018-04-11T04:05:44.054Z,17.48
2018-04-11T04:08:11.629Z,19.17
2018-04-11T04:10:39.109Z,22.77
2018-04-11T04:13:06.639Z,22.70
2018-04-11T04:15:46.134Z,23.20
2018-04-11T04:18:25.627Z,21.67
2018-04-11T04:20:53.141Z,20.40
2018-04-11T04:23:21.429Z,21.05
2018-04-11T04:25:49.685Z,21.83
2018-04-11T04:28:18.139Z,22.75
2018-04-11T04:30:45.640Z,25.33
2018-04-11T04:33:13.957Z,25.70
2018-04-11T04:35:41.466Z,27.17
2018-04-11T04:38:09.749Z,25.37
2018-04-11T04:40:37.421Z,26.48
2018-04-11T04:43:04.950Z,26.17
2018-04-11T04:45:33.253Z,28.17
2018-04-11T04:48:00.743Z,23.38
2018-04-11T04:50:28.372Z,28.08
2018-04-11T04:52:55.862Z,27.92
2018-04-11T04:55:23.389Z,27.92
2018-04-11T04:57:50.904Z,37.08
2018-04-11T05:00:18.428Z,32.60
2018-04-11T05:02:45.944Z,31.58
2018-04-11T05:05:14.199Z,31.30
2018-04-11T05:07:41.929Z,33.33
2018-04-11T05:10:09.436Z,30.88
2018-04-11T05:12:37.780Z,32.88
2018-04-11T05:15:05.300Z,31.85
2018-04-11T05:17:32.797Z,39.22
2018-04-11T05:20:00.305Z,34.40
2018-04-11T05:22:28.614Z,36.20
2018-04-11T05:24:56.152Z,31.67
2018-04-11T05:27:23.723Z,28.60
2018-04-11T05:29:51.297Z,34.17
2018-04-11T05:32:18.787Z,30.45
2018-04-11T05:34:46.380Z,29.17
2018-04-11T05:37:13.880Z,32.58
2018-04-11T05:39:41.426Z,29.08
2018-04-11T05:42:08.947Z,33.97
2018-04-11T05:44:37.540Z,27.25
2018-04-11T05:47:05.374Z,29.05
2018-04-11T05:49:32.993Z,29.42
2018-04-11T05:52:00.553Z,27.70
2018-04-11T05:54:28.059Z,34.08
2018-04-11T05:56:55.575Z,29.75
2018-04-11T05:59:23.417Z,27.85
2018-04-11T06:01:50.947Z,30.55
2018-04-11T06:04:18.529Z,30.62
2018-04-11T06:06:46.038Z,33.72
2018-04-11T06:09:13.638Z,28.92
2018-04-11T06:11:41.941Z,28.85
2018-04-11T06:14:09.447Z,31.98
2018-04-11T06:16:36.945Z,33.50
2018-04-11T06:19:04.475Z,29.37
2018-04-11T06:21:31.987Z,28.60
2018-04-11T06:23:59.512Z,29.10
2018-04-11T06:26:27.024Z,27.37
2018-04-11T06:28:54.581Z,30.77
2018-04-11T06:31:22.092Z,28.87
2018-04-11T06:33:49.636Z,29.77
2018-04-11T06:36:17.417Z,27.13
2018-04-11T06:38:44.958Z,30.48
2018-04-11T06:41:13.344Z,31.70
2018-04-11T06:43:41.732Z,32.35
2018-04-11T06:46:09.242Z,29.85
2018-04-11T06:48:36.785Z,29.52
2018-04-11T06:51:04.285Z,26.80
2018-04-11T06:53:32.893Z,31.42
2018-04-11T06:56:00.447Z,29.23
2018-04-11T06:58:28.724Z,31.37
2018-04-11T07:00:56.240Z,27.48
2018-04-11T07:03:23.741Z,31.17
2018-04-11T07:05:51.289Z,29.70
2018-04-11T07:08:19.575Z,28.23
2018-04-11T07:10:47.103Z,29.90
2018-04-11T07:13:14.673Z,29.05
2018-04-11T07:15:42.982Z,32.13
2018-04-11T07:18:10.514Z,29.77
2018-04-11T07:20:38.897Z,34.63
2018-04-11T07:23:07.196Z,34.28
2018-04-11T07:25:34.696Z,46.50
2018-04-11T07:28:02.207Z,37.75
2018-04-11T07:30:30.581Z,37.95
2018-04-11T07:32:58.172Z,36.05
2018-04-11T07:35:25.682Z,35.92
2018-04-11T07:37:53.258Z,33.08
2018-04-11T07:40:21.607Z,32.72
2018-04-11T07:42:49.797Z,36.53
2018-04-11T07:45:18.392Z,33.78
2018-04-11T07:47:46.700Z,30.20
2018-04-11T07:50:14.328Z,35.80
2018-04-11T07:52:42.619Z,34.25
2018-04-11T07:55:10.129Z,39.78
2018-04-11T07:57:37.707Z,37.85
2018-04-11T08:00:06.110Z,39.60
2018-04-11T08:02:34.381Z,34.60
2018-04-11T08:05:01.868Z,35.45
2018-04-11T08:07:29.389Z,32.28
2018-04-11T08:09:57.683Z,34.53
2018-04-11T08:12:25.183Z,32.90
2018-04-11T08:14:52.844Z,35.30
2018-04-11T08:17:20.352Z,32.05
2018-04-11T08:19:49.042Z,26.65
2018-04-11T08:22:17.314Z,27.55
2018-04-11T08:24:45.582Z,25.98
2018-04-11T08:27:13.901Z,24.20
2018-04-11T08:29:41.389Z,27.23
2018-04-11T08:32:08.910Z,19.05
2018-04-11T08:34:36.442Z,18.80
2018-04-11T08:37:04.776Z,20.70
2018-04-11T08:39:32.244Z,21.12
2018-04-11T08:41:59.751Z,19.85
2018-04-11T08:44:27.429Z,19.02
2018-04-11T08:46:54.922Z,17.30
2018-04-11T08:49:22.464Z,18.85
2018-04-11T08:51:49.974Z,16.90
2018-04-11T08:54:17.517Z,22.20
2018-04-11T08:56:45.777Z,21.12
2018-04-11T08:59:13.356Z,18.37
2018-04-11T09:01:41.649Z,17.92
2018-04-11T09:04:09.922Z,18.30
2018-04-11T09:06:37.502Z,17.80
2018-04-11T09:09:05.947Z,17.65
2018-04-11T09:11:34.279Z,20.75
2018-04-11T09:14:01.838Z,16.08
2018-04-11T09:16:29.564Z,20.37
2018-04-11T09:18:57.128Z,16.08
2018-04-11T09:21:24.635Z,17.80
2018-04-11T09:23:52.289Z,18.25
2018-04-11T09:26:19.900Z,15.18
2018-04-11T09:28:47.444Z,20.42
2018-04-11T09:31:15.771Z,15.48
2018-04-11T09:33:43.280Z,15.45
2018-04-11T09:36:10.906Z,17.10
2018-04-11T09:38:38.605Z,13.27
2018-04-11T09:41:07.000Z,12.00
2018-04-11T09:43:35.398Z,14.63
2018-04-11T09:46:02.983Z,14.73
2018-04-11T09:48:30.512Z,17.95
2018-04-11T09:50:58.017Z,18.60
2018-04-11T09:53:25.609Z,19.83
2018-04-11T09:55:54.015Z,18.25
2018-04-11T09:58:21.584Z,16.58
2018-04-11T10:00:53.072Z,17.50
2018-04-11T10:03:22.924Z,20.85
2018-04-11T10:05:50.640Z,24.33
2018-04-11T10:08:18.174Z,21.08
2018-04-11T10:10:45.704Z,21.73
2018-04-11T10:13:13.251Z,19.48
2018-04-11T10:15:41.579Z,21.35
2018-04-11T10:18:09.291Z,19.15
2018-04-11T10:20:37.577Z,21.73
2018-04-11T10:23:05.086Z,24.42
2018-04-11T10:25:32.575Z,20.65
2018-04-11T10:28:00.870Z,27.62
2018-04-11T10:30:28.441Z,21.10
2018-04-11T10:32:55.936Z,20.00
2018-04-11T10:35:23.544Z,19.30
2018-04-11T10:37:51.863Z,21.80
2018-04-11T10:40:19.481Z,21.35
2018-04-11T10:42:48.182Z,20.93
2018-04-11T10:45:15.796Z,21.70
2018-04-11T10:47:43.353Z,25.10
2018-04-11T10:50:10.968Z,23.83
2018-04-11T10:52:38.472Z,21.70
2018-04-11T10:55:06.041Z,21.85
2018-04-11T10:57:33.601Z,22.73
2018-04-11T11:00:02.549Z,21.10
2018-04-11T11:02:30.074Z,25.57
2018-04-11T11:04:57.696Z,27.85
2018-04-11T11:07:25.230Z,27.30
2018-04-11T11:09:52.777Z,22.10
2018-04-11T11:12:21.019Z,28.45
2018-04-11T11:14:50.376Z,26.08
2018-04-11T11:17:17.874Z,30.58
2018-04-11T11:19:57.727Z,30.27
2018-04-11T11:22:26.510Z,29.25
2018-04-11T11:24:54.969Z,27.23
2018-04-11T11:27:22.497Z,28.63
2018-04-11T11:29:50.031Z,28.67
2018-04-11T11:32:17.588Z,29.52
2018-04-11T11:34:45.181Z,29.77
2018-04-11T11:37:12.709Z,28.20
2018-04-11T11:39:40.961Z,28.40
2018-04-11T11:42:08.729Z,29.87
2018-04-11T11:44:36.252Z,27.23
2018-04-11T11:47:03.770Z,27.30
2018-04-11T11:49:31.321Z,28.90
2018-04-11T11:51:59.745Z,25.17
2018-04-11T11:54:27.969Z,28.90
2018-04-11T11:56:56.271Z,27.60
2018-04-11T11:59:23.800Z,32.60
2018-04-11T12:01:52.082Z,26.97
2018-04-11T12:04:20.391Z,24.73
2018-04-11T12:06:48.003Z,24.47
2018-04-11T12:09:15.619Z,26.03
2018-04-11T12:11:43.156Z,21.80
2018-04-11T12:14:10.923Z,31.43
2018-04-11T12:16:38.483Z,25.93
2018-04-11T12:19:06.984Z,24.10
2018-04-11T12:21:34.603Z,25.10
2018-04-11T12:24:02.140Z,25.23
2018-04-11T12:26:29.862Z,24.40
2018-04-11T12:28:57.407Z,24.77
2018-04-11T12:31:25.030Z,24.90
2018-04-11T12:33:52.631Z,26.92
2018-04-11T12:36:20.181Z,30.47
2018-04-11T12:38:48.530Z,27.10
2018-04-11T12:41:16.092Z,30.70
2018-04-11T12:43:43.612Z,33.63
2018-04-11T12:46:11.254Z,36.47
2018-04-11T12:48:38.801Z,24.07
2018-04-11T12:51:06.437Z,29.27
2018-04-11T12:53:33.981Z,33.97
2018-04-11T12:56:01.559Z,30.33
2018-04-11T12:58:29.140Z,27.70
2018-04-11T13:00:57.973Z,26.67
2018-04-11T13:03:25.813Z,25.50
2018-04-11T13:05:53.377Z,31.03
2018-04-11T13:08:20.944Z,25.10
2018-04-11T13:10:48.500Z,23.40
2018-04-11T13:13:16.215Z,25.80
2018-04-11T13:15:43.763Z,25.50
2018-04-11T13:18:11.351Z,23.80
2018-04-11T13:20:38.930Z,28.33
2018-04-11T13:23:06.533Z,28.00
2018-04-11T13:25:34.957Z,27.10
2018-04-11T13:28:02.555Z,26.93
2018-04-11T13:30:30.128Z,29.10
2018-04-11T13:32:57.821Z,26.73
2018-04-11T13:35:25.518Z,28.77
2018-04-11T13:37:53.035Z,29.53
2018-04-11T13:40:20.607Z,29.97
2018-04-11T13:42:48.969Z,29.53
2018-04-11T13:45:16.500Z,31.77
2018-04-11T13:47:44.061Z,29.53
2018-04-11T13:50:11.618Z,27.70
2018-04-11T13:52:39.573Z,32.07
2018-04-11T13:55:07.134Z,30.70
2018-04-11T13:57:34.740Z,35.27
2018-04-11T14:00:02.298Z,29.80
2018-04-11T14:02:30.666Z,34.03
2018-04-11T14:04:58.247Z,32.07
2018-04-11T14:07:26.545Z,32.07
2018-04-11T14:09:54.137Z,31.40
2018-04-11T14:12:21.657Z,33.30
2018-04-11T14:14:49.938Z,31.83
2018-04-11T14:17:17.488Z,34.80
2018-04-11T14:19:45.820Z,36.13
2018-04-11T14:22:13.361Z,35.33
2018-04-11T14:24:40.891Z,40.23
2018-04-11T14:27:08.474Z,37.60
2018-04-11T14:29:36.042Z,41.27
2018-04-11T14:32:03.540Z,40.60
2018-04-11T14:34:31.083Z,38.40
2018-04-11T14:36:58.649Z,38.00
2018-04-11T14:39:26.976Z,40.93
2018-04-11T14:41:54.838Z,35.40
2018-04-11T14:44:22.456Z,40.77
2018-04-11T14:46:50.097Z,35.30
2018-04-11T14:49:17.717Z,35.43
2018-04-11T14:51:45.297Z,31.67
2018-04-11T14:54:12.915Z,33.10
2018-04-11T14:56:40.543Z,36.30
2018-04-11T14:59:08.060Z,30.13
2018-04-11T15:01:35.643Z,36.27
2018-04-11T15:04:03.258Z,40.50
2018-04-11T15:06:31.620Z,44.40
2018-04-11T15:09:01.155Z,31.57
2018-04-11T15:11:28.739Z,25.93
2018-04-11T15:13:56.334Z,24.17
2018-04-11T15:16:23.925Z,22.60
2018-04-11T15:18:52.261Z,27.40
2018-04-11T15:21:19.804Z,28.07
2018-04-11T15:23:47.866Z,24.73
2018-04-11T15:26:15.405Z,20.40
2018-04-11T15:28:45.660Z,21.47
2018-04-11T15:31:14.134Z,20.77
2018-04-11T15:33:41.648Z,18.00
2018-04-11T15:36:09.985Z,12.10
2018-04-11T15:38:37.531Z,10.83
2018-04-11T15:41:05.095Z,13.93
2018-04-11T15:43:33.777Z,11.60
2018-04-11T15:46:02.128Z,11.60
2018-04-11T15:48:29.723Z,11.20
2018-04-11T15:50:58.052Z,12.23
2018-04-11T15:53:26.435Z,11.40
2018-04-11T15:55:54.826Z,11.53
2018-04-11T15:58:32.343Z,8.93
2018-04-11T16:00:59.883Z,9.67
2018-04-11T16:03:27.559Z,10.57
2018-04-11T16:05:55.558Z,10.77
2018-04-11T16:08:23.971Z,10.83
2018-04-11T16:10:52.590Z,12.10
2018-04-11T16:13:20.197Z,10.80
2018-04-11T16:15:47.775Z,11.83
2018-04-11T16:18:16.176Z,10.87
2018-04-11T16:20:43.704Z,14.47
2018-04-11T16:23:12.244Z,10.17
2018-04-11T16:25:39.960Z,10.57
2018-04-11T16:28:08.228Z,10.73
2018-04-11T16:30:36.638Z,11.43
2018-04-11T16:33:04.203Z,10.80
2018-04-11T16:35:32.616Z,13.13
2018-04-11T16:38:00.420Z,11.73
2018-04-11T16:40:28.796Z,11.30
2018-04-11T16:42:57.103Z,10.73
2018-04-11T16:45:24.625Z,11.47
2018-04-11T16:47:52.138Z,10.73
2018-04-11T16:50:19.750Z,10.80
2018-04-11T16:52:47.341Z,9.87
2018-04-11T16:55:14.851Z,8.23
2018-04-11T16:57:42.622Z,9.20
2018-04-11T17:00:10.928Z,8.80
2018-04-11T17:02:39.026Z,8.77
2018-04-11T17:05:09.651Z,7.17
2018-04-11T17:07:38.080Z,7.03
2018-04-11T17:10:06.298Z,6.30
2018-04-11T17:12:33.929Z,7.40
2018-04-11T17:15:01.498Z,6.00
2018-04-11T17:17:29.070Z,6.07
2018-04-11T17:19:56.650Z,7.70
2018-04-11T17:25:39.759Z,6.07
2018-04-11T17:28:19.049Z,6.40
2018-04-11T17:30:58.676Z,5.20
2018-04-11T17:33:26.226Z,6.57
2018-04-11T17:35:53.790Z,5.17
2018-04-11T17:38:21.434Z,7.33
2018-04-11T17:40:48.949Z,4.90
2018-04-11T17:43:16.535Z,4.30
2018-04-11T17:45:44.879Z,5.40
2018-04-11T17:48:12.369Z,5.50
2018-04-11T17:50:39.940Z,7.23
2018-04-11T17:53:07.458Z,5.97
2018-04-11T17:55:34.998Z,4.93
2018-04-11T17:58:02.933Z,7.30
2018-04-11T18:00:30.529Z,5.10
2018-04-11T18:02:58.134Z,4.97
2018-04-11T18:05:25.693Z,6.40
2018-04-11T18:07:53.280Z,5.50
2018-04-11T18:10:20.822Z,6.23
2018-04-11T18:12:48.323Z,6.90
2018-04-11T18:15:15.851Z,6.37
2018-04-11T18:17:43.714Z,5.87
2018-04-11T18:20:11.246Z,7.60
2018-04-11T18:22:38.792Z,6.47
2018-04-11T18:25:07.803Z,7.53
2018-04-11T18:27:36.207Z,7.50
2018-04-11T18:30:03.993Z,5.40
2018-04-11T18:32:31.547Z,5.53
2018-04-11T18:34:59.083Z,5.30
2018-04-11T18:37:26.606Z,5.27
2018-04-11T18:39:54.901Z,6.43
2018-04-11T18:42:22.439Z,8.10
2018-04-11T18:44:50.028Z,6.83
2018-04-11T18:47:17.698Z,6.40
2018-04-11T18:49:46.115Z,6.10
2018-04-11T18:52:13.632Z,6.30
2018-04-11T18:54:42.019Z,6.63
2018-04-11T18:57:09.639Z,7.10
2018-04-11T18:59:37.141Z,6.90
2018-04-11T19:02:04.787Z,7.67
2018-04-11T19:04:32.333Z,8.10
2018-04-11T19:07:00.689Z,7.97
2018-04-11T19:09:28.733Z,7.73
2018-04-11T19:11:56.293Z,8.03
2018-04-11T19:14:23.927Z,7.82
2018-04-11T19:16:51.388Z,7.00
2018-04-11T19:19:19.152Z,10.63
2018-04-11T19:21:46.679Z,8.77
2018-04-11T19:24:15.393Z,11.63
2018-04-11T19:26:42.931Z,11.07
2018-04-11T19:29:11.229Z,53.83
2018-04-11T19:31:38.895Z,25.23
2018-04-11T19:34:06.449Z,17.70
2018-04-11T19:36:34.707Z,12.43
2018-04-11T19:39:02.249Z,11.50
2018-04-11T19:41:30.577Z,16.40
2018-04-11T19:43:58.182Z,11.98
2018-04-11T19:46:26.616Z,10.93
2018-04-11T19:48:54.246Z,12.70
2018-04-11T19:51:21.749Z,12.68
2018-04-11T19:53:49.281Z,11.03
2018-04-11T19:56:16.878Z,14.13
2018-04-11T19:58:44.508Z,12.47
2018-04-11T20:01:12.030Z,11.27
2018-04-11T20:03:40.344Z,11.48
2018-04-11T20:06:07.989Z,13.87
2018-04-11T20:08:36.377Z,11.68
2018-04-11T20:11:04.197Z,13.10
2018-04-11T20:13:31.762Z,12.50
2018-04-11T20:16:00.078Z,11.97
2018-04-11T20:18:27.595Z,11.35
2018-04-11T20:20:55.942Z,10.20
2018-04-11T20:23:23.494Z,11.57
2018-04-11T20:25:51.041Z,10.80
2018-04-11T20:28:18.645Z,12.27
2018-04-11T20:30:46.179Z,11.57
2018-04-11T20:33:13.764Z,11.37
2018-04-11T20:35:41.263Z,11.30
2018-04-11T20:38:09.705Z,12.82
2018-04-11T20:40:37.279Z,12.55
2018-04-11T20:43:05.560Z,13.23
2018-04-11T20:45:33.978Z,11.10
2018-04-11T20:48:01.573Z,12.00
2018-04-11T20:50:30.785Z,12.37
2018-04-11T20:52:59.674Z,17.08
2018-04-11T20:55:28.004Z,18.27
2018-04-11T20:57:55.525Z,18.20
2018-04-11T21:00:23.856Z,16.20
2018-04-11T21:02:51.455Z,18.87
2018-04-11T21:05:19.845Z,20.00
2018-04-11T21:07:47.372Z,19.23
2018-04-11T21:10:14.926Z,19.05
2018-04-11T21:12:42.470Z,16.52
2018-04-11T21:15:10.090Z,19.65
2018-04-11T21:17:37.837Z,18.12
2018-04-11T21:20:06.145Z,13.88
2018-04-11T21:22:34.464Z,15.43
2018-04-11T21:25:02.006Z,14.90
2018-04-11T21:27:29.647Z,16.05
2018-04-11T21:29:57.139Z,15.20
2018-04-11T21:32:24.669Z,16.85
2018-04-11T21:34:52.289Z,14.70
2018-04-11T21:37:20.575Z,15.48
2018-04-11T21:39:48.438Z,14.10
2018-04-11T21:42:15.943Z,17.58
2018-04-11T21:44:43.479Z,13.40
2018-04-11T21:47:11.013Z,13.70
2018-04-11T21:49:38.613Z,13.70
2018-04-11T21:52:06.228Z,11.65
2018-04-11T21:54:34.666Z,14.15
2018-04-11T21:57:02.263Z,14.13
2018-04-11T21:59:30.592Z,14.40
2018-04-11T22:01:58.084Z,17.37
2018-04-11T22:04:26.395Z,16.98
2018-04-11T22:06:54.777Z,13.32
2018-04-11T22:09:22.351Z,18.85
2018-04-11T22:11:50.201Z,16.95
2018-04-11T22:14:17.745Z,15.80
2018-04-11T22:16:45.274Z,18.70
2018-04-11T22:19:12.794Z,21.25
2018-04-11T22:21:40.300Z,15.60
2018-04-11T22:24:07.791Z,15.85
2018-04-11T22:26:35.301Z,16.62
2018-04-11T22:29:02.841Z,16.30
2018-04-11T22:31:30.460Z,15.48
2018-04-11T22:33:58.739Z,13.55
2018-04-11T22:36:26.259Z,13.55
2018-04-11T22:38:53.752Z,12.75
2018-04-11T22:41:21.349Z,8.30
2018-04-11T22:43:48.828Z,9.05
2018-04-11T22:46:16.334Z,11.32
2018-04-11T22:48:43.836Z,8.63
2018-04-11T22:51:11.435Z,11.80
2018-04-11T22:53:39.711Z,12.05
2018-04-11T22:56:08.001Z,12.75
2018-04-11T22:58:36.321Z,14.43
2018-04-11T23:01:03.856Z,14.93
2018-04-11T23:03:31.384Z,14.80
2018-04-11T23:05:59.699Z,15.57
2018-04-11T23:08:27.191Z,15.18
2018-04-11T23:10:54.754Z,14.07
2018-04-11T23:13:22.218Z,12.10
2018-04-11T23:15:49.731Z,11.80
2018-04-11T23:18:17.217Z,13.15
2018-04-11T23:20:44.733Z,14.50
2018-04-11T23:23:12.240Z,12.35
2018-04-11T23:25:39.748Z,17.58
2018-04-11T23:28:07.260Z,14.98
2018-04-11T23:30:34.769Z,15.23
2018-04-11T23:33:02.305Z,17.95
2018-04-11T23:35:30.565Z,15.00
2018-04-11T23:37:58.859Z,13.55
2018-04-11T23:40:27.129Z,15.35
2018-04-11T23:42:55.411Z,11.88
2018-04-11T23:45:23.705Z,12.80
2018-04-11T23:47:51.197Z,18.33
2018-04-11T23:50:18.712Z,15.95
2018-04-11T23:52:46.298Z,12.70
2018-04-11T23:55:13.785Z,15.15
2018-04-11T23:57:41.304Z,13.65
